Time;durP1;ratioP1;P1;durP2;ratioP2;P2;SDS_P1;SDS_P2;PMS_P1;PMS_P2;Temp;Humidity;BMP_temperature;BMP_pressure;BME280_temperature;BME280_humidity;BME280_pressure;Samples;Min_cycle;Max_cycle;Signal;HPM_P1;HPM_P2
2023/11/19 00:02:10;;;;;;;11.82;3.70;;;;;;;;;;5042181;28;20057;-77
2023/11/19 00:04:41;;;;;;;8.57;3.40;;;;;;;;;;5042567;28;20047;-75
2023/11/19 00:07:13;;;;;;;9.27;3.72;;;;;;;;;;5041547;28;20069;-75
2023/11/19 00:09:45;;;;;;;7.47;3.75;;;;;;;;;;5041493;28;20064;-76
2023/11/19 00:12:15;;;;;;;8.27;3.58;;;;;;;;;;5040652;28;20590;-75
2023/11/19 00:14:50;;;;;;;9.13;3.25;;;;;;;;;;5040830;28;20064;-76
2023/11/19 00:17:20;;;;;;;11.05;3.67;;;;;;;;;;5040328;28;20057;-76
2023/11/19 00:19:52;;;;;;;7.30;3.80;;;;;;;;;;5041201;28;20507;-76
2023/11/19 00:22:23;;;;;;;7.38;3.40;;;;;;;;;;5041659;28;20512;-75
2023/11/19 00:24:53;;;;;;;6.55;3.53;;;;;;;;;;5042244;28;20053;-75
2023/11/19 00:27:24;;;;;;;5.57;3.15;;;;;;;;;;5042318;28;20530;-75
2023/11/19 00:29:54;;;;;;;6.57;3.83;;;;;;;;;;5041624;28;20048;-76
2023/11/19 00:32:25;;;;;;;7.25;3.97;;;;;;;;;;5041661;28;20400;-75
2023/11/19 00:34:58;;;;;;;8.65;4.30;;;;;;;;;;5041030;28;20392;-80
2023/11/19 00:37:28;;;;;;;10.93;3.90;;;;;;;;;;5041419;28;20053;-75
2023/11/19 00:39:58;;;;;;;11.07;4.13;;;;;;;;;;5041616;28;20492;-75
2023/11/19 00:42:29;;;;;;;7.00;3.80;;;;;;;;;;5041311;28;20045;-75
2023/11/19 00:45:01;;;;;;;6.57;3.83;;;;;;;;;;5040145;28;20416;-75
2023/11/19 00:47:31;;;;;;;6.45;3.78;;;;;;;;;;5041110;28;20057;-74
2023/11/19 00:50:02;;;;;;;11.05;4.32;;;;;;;;;;5041622;28;20044;-75
2023/11/19 00:52:34;;;;;;;6.88;3.85;;;;;;;;;;5041391;28;20056;-74
2023/11/19 00:55:06;;;;;;;7.65;3.90;;;;;;;;;;5041051;28;20063;-74
2023/11/19 00:57:39;;;;;;;6.50;3.13;;;;;;;;;;5040558;28;20057;-74
2023/11/19 01:00:19;;;;;;;6.07;3.33;;;;;;;;;;5039312;28;20060;-75
2023/11/19 01:02:50;;;;;;;7.40;3.20;;;;;;;;;;5039969;28;20056;-75
2023/11/19 01:05:22;;;;;;;6.93;3.58;;;;;;;;;;5023981;28;20802;-75
2023/11/19 01:07:53;;;;;;;6.28;3.13;;;;;;;;;;5039863;28;20053;-74
2023/11/19 01:10:25;;;;;;;5.88;2.92;;;;;;;;;;5040240;28;20072;-75
2023/11/19 01:12:57;;;;;;;5.53;3.03;;;;;;;;;;5039833;28;20056;-75
2023/11/19 01:15:33;;;;;;;7.25;2.95;;;;;;;;;;5040429;28;20594;-74
2023/11/19 01:18:04;;;;;;;7.68;2.60;;;;;;;;;;5041426;28;20055;-75
2023/11/19 01:20:35;;;;;;;11.18;2.95;;;;;;;;;;5039701;28;20057;-75
2023/11/19 01:23:05;;;;;;;5.10;3.28;;;;;;;;;;5040698;28;20447;-74
2023/11/19 01:25:37;;;;;;;4.40;3.00;;;;;;;;;;5040995;28;20048;-75
2023/11/19 01:28:07;;;;;;;7.63;2.63;;;;;;;;;;5039800;28;20068;-75
2023/11/19 01:30:39;;;;;;;5.43;2.55;;;;;;;;;;5038895;28;20060;-74
2023/11/19 01:33:10;;;;;;;7.20;3.47;;;;;;;;;;5037480;28;20412;-74
2023/11/19 01:35:41;;;;;;;4.72;2.42;;;;;;;;;;5039920;28;20853;-75
2023/11/19 01:38:12;;;;;;;5.97;2.75;;;;;;;;;;5040056;28;20056;-76
2023/11/19 01:40:43;;;;;;;3.95;2.60;;;;;;;;;;5038816;28;20060;-75
2023/11/19 01:43:33;;;;;;;8.68;3.08;;;;;;;;;;5039916;28;20048;-74
2023/11/19 01:46:04;;;;;;;5.63;2.90;;;;;;;;;;5040772;28;20037;-74
2023/11/19 01:48:39;;;;;;;5.32;2.45;;;;;;;;;;5040639;28;20056;-74
2023/11/19 01:51:10;;;;;;;6.18;2.67;;;;;;;;;;5040536;28;20052;-75
2023/11/19 01:53:41;;;;;;;13.15;2.60;;;;;;;;;;5040600;28;20056;-74
2023/11/19 01:56:15;;;;;;;5.82;2.50;;;;;;;;;;5040137;28;20044;-77
2023/11/19 01:58:48;;;;;;;4.93;2.55;;;;;;;;;;5039016;28;20056;-74
2023/11/19 02:01:19;;;;;;;6.63;2.65;;;;;;;;;;5039487;28;20049;-74
2023/11/19 02:03:49;;;;;;;7.53;2.40;;;;;;;;;;5039020;28;20056;-74
2023/11/19 02:06:20;;;;;;;6.55;2.58;;;;;;;;;;5038151;28;20053;-75
2023/11/19 02:08:51;;;;;;;6.15;2.50;;;;;;;;;;5039902;28;20607;-74
2023/11/19 02:11:22;;;;;;;7.75;2.95;;;;;;;;;;5040156;28;20048;-74
2023/11/19 02:13:53;;;;;;;3.85;2.67;;;;;;;;;;5039631;28;20041;-76
2023/11/19 02:16:24;;;;;;;5.95;2.75;;;;;;;;;;5037726;28;20431;-75
2023/11/19 02:18:55;;;;;;;8.60;3.00;;;;;;;;;;5022301;28;20049;-74
2023/11/19 02:21:25;;;;;;;9.95;2.88;;;;;;;;;;5038576;28;20778;-75
2023/11/19 02:23:57;;;;;;;7.10;3.08;;;;;;;;;;5037786;28;20067;-75
2023/11/19 02:26:51;;;;;;;7.53;2.50;;;;;;;;;;5038043;28;20090;-75
2023/11/19 02:29:22;;;;;;;13.88;10.48;;;;;;;;;;5039377;28;20535;-74
2023/11/19 02:31:54;;;;;;;9.05;5.22;;;;;;;;;;5039232;28;20641;-74
2023/11/19 02:34:25;;;;;;;17.05;4.97;;;;;;;;;;5040624;28;20060;-75
2023/11/19 02:36:56;;;;;;;5.78;3.47;;;;;;;;;;5039948;28;20068;-74
2023/11/19 02:39:26;;;;;;;9.88;3.55;;;;;;;;;;5039571;28;20558;-74
2023/11/19 02:41:57;;;;;;;8.02;3.50;;;;;;;;;;5039154;28;20060;-75
2023/11/19 02:44:30;;;;;;;8.85;2.83;;;;;;;;;;5038154;28;20491;-75
2023/11/19 02:47:07;;;;;;;7.03;3.22;;;;;;;;;;5038345;28;20045;-75
2023/11/19 02:49:38;;;;;;;6.78;2.72;;;;;;;;;;5039241;28;20044;-74
2023/11/19 02:52:10;;;;;;;6.20;2.78;;;;;;;;;;5039566;28;20060;-75
2023/11/19 02:54:42;;;;;;;13.05;3.00;;;;;;;;;;5039334;28;20056;-75
2023/11/19 02:57:13;;;;;;;10.23;3.03;;;;;;;;;;5037767;28;20063;-75
2023/11/19 02:59:47;;;;;;;10.90;3.22;;;;;;;;;;5037413;28;20528;-74
2023/11/19 03:02:19;;;;;;;5.72;3.22;;;;;;;;;;5037529;28;20060;-75
2023/11/19 03:04:48;;;;;;;8.75;3.60;;;;;;;;;;5039097;28;21238;-75
2023/11/19 03:07:19;;;;;;;10.02;3.30;;;;;;;;;;5038147;28;20049;-74
2023/11/19 03:09:49;;;;;;;9.95;3.30;;;;;;;;;;5038223;28;20049;-74
2023/11/19 03:12:19;;;;;;;9.02;3.88;;;;;;;;;;5021827;28;20428;-75
2023/11/19 03:14:50;;;;;;;10.98;3.80;;;;;;;;;;5039783;28;20056;-74
2023/11/19 03:17:21;;;;;;;13.10;3.75;;;;;;;;;;5037780;28;20045;-77
2023/11/19 03:20:01;;;;;;;12.93;4.28;;;;;;;;;;5037188;28;20055;-77
2023/11/19 03:22:36;;;;;;;9.23;4.03;;;;;;;;;;5039422;28;20049;-76
2023/11/19 03:25:08;;;;;;;8.10;4.20;;;;;;;;;;5037183;28;20059;-75
2023/11/19 03:27:41;;;;;;;16.55;3.65;;;;;;;;;;5038559;28;20534;-75
2023/11/19 03:30:12;;;;;;;9.45;3.95;;;;;;;;;;5039322;28;20056;-74
2023/11/19 03:32:43;;;;;;;8.82;3.38;;;;;;;;;;5037642;28;20500;-75
2023/11/19 03:35:13;;;;;;;6.05;3.60;;;;;;;;;;5039002;28;20052;-74
2023/11/19 03:37:43;;;;;;;11.70;3.70;;;;;;;;;;5038957;28;20057;-74
2023/11/19 03:40:14;;;;;;;7.03;3.45;;;;;;;;;;5039139;28;20064;-74
2023/11/19 03:42:49;;;;;;;9.13;4.22;;;;;;;;;;5039609;28;20403;-74
2023/11/19 03:45:20;;;;;;;9.73;3.60;;;;;;;;;;5037772;28;20053;-74
2023/11/19 03:47:50;;;;;;;6.53;2.95;;;;;;;;;;5038949;28;20523;-75
2023/11/19 03:50:21;;;;;;;8.73;3.55;;;;;;;;;;5039189;28;20504;-74
2023/11/19 03:52:52;;;;;;;8.95;3.63;;;;;;;;;;5039592;28;20048;-74
2023/11/19 03:55:22;;;;;;;9.43;3.50;;;;;;;;;;5038332;28;20048;-74
2023/11/19 03:57:52;;;;;;;6.55;3.15;;;;;;;;;;5039319;28;20044;-74
2023/11/19 04:00:23;;;;;;;8.55;3.42;;;;;;;;;;5038906;28;20040;-74
2023/11/19 04:02:55;;;;;;;11.05;4.32;;;;;;;;;;5039528;28;20400;-74
2023/11/19 04:05:27;;;;;;;10.15;3.55;;;;;;;;;;5040537;28;20060;-74
2023/11/19 04:07:57;;;;;;;7.50;2.88;;;;;;;;;;5041057;28;20053;-74
2023/11/19 04:10:30;;;;;;;5.90;2.88;;;;;;;;;;5044800;28;20060;-75
2023/11/19 04:13:04;;;;;;;11.05;3.25;;;;;;;;;;5041381;28;21139;-74
2023/11/19 04:15:34;;;;;;;8.38;3.08;;;;;;;;;;5043239;28;20053;-74
2023/11/19 04:18:04;;;;;;;7.28;3.00;;;;;;;;;;5044785;28;20048;-74
2023/11/19 04:20:35;;;;;;;11.88;3.08;;;;;;;;;;5045239;28;20060;-74
2023/11/19 04:23:05;;;;;;;8.45;3.50;;;;;;;;;;5045858;28;20052;-74
2023/11/19 04:25:36;;;;;;;8.88;2.90;;;;;;;;;;5044449;28;20503;-74
2023/11/19 04:28:06;;;;;;;8.40;2.90;;;;;;;;;;5044528;28;20072;-75
2023/11/19 04:30:37;;;;;;;4.03;2.70;;;;;;;;;;5043095;28;20049;-75
2023/11/19 04:33:08;;;;;;;11.18;2.65;;;;;;;;;;5044905;28;20064;-74
2023/11/19 04:35:38;;;;;;;7.32;3.08;;;;;;;;;;5045774;28;20415;-75
2023/11/19 04:38:10;;;;;;;8.07;2.67;;;;;;;;;;5042798;28;20057;-74
2023/11/19 04:40:41;;;;;;;5.93;2.70;;;;;;;;;;5044257;28;20051;-75
2023/11/19 04:43:15;;;;;;;7.93;2.28;;;;;;;;;;5045204;28;20049;-75
2023/11/19 04:45:45;;;;;;;7.97;3.47;;;;;;;;;;5044293;28;20420;-75
2023/11/19 04:48:15;;;;;;;7.72;2.72;;;;;;;;;;5042711;28;20071;-74
2023/11/19 04:50:46;;;;;;;6.30;2.70;;;;;;;;;;5044372;28;20068;-74
2023/11/19 04:53:18;;;;;;;5.97;2.22;;;;;;;;;;5044218;28;20052;-75
2023/11/19 04:55:47;;;;;;;12.77;3.30;;;;;;;;;;5044530;28;20272;-74
2023/11/19 04:58:18;;;;;;;7.05;3.20;;;;;;;;;;5043592;28;20795;-74
2023/11/19 05:00:49;;;;;;;9.00;3.60;;;;;;;;;;5042721;28;20427;-74
2023/11/19 05:03:20;;;;;;;10.15;2.83;;;;;;;;;;5044252;28;20053;-75
2023/11/19 05:05:50;;;;;;;8.25;3.40;;;;;;;;;;5043641;28;20503;-74
2023/11/19 05:08:20;;;;;;;4.30;2.42;;;;;;;;;;5044793;28;20526;-74
2023/11/19 05:10:51;;;;;;;6.32;2.92;;;;;;;;;;5044538;28;20530;-74
2023/11/19 05:13:22;;;;;;;10.77;3.05;;;;;;;;;;5044964;28;20049;-74
2023/11/19 05:15:52;;;;;;;5.70;3.20;;;;;;;;;;5043597;28;20399;-74
2023/11/19 05:18:22;;;;;;;11.05;3.20;;;;;;;;;;5043322;28;20063;-74
2023/11/19 05:20:53;;;;;;;7.57;3.03;;;;;;;;;;5042367;28;20033;-74
2023/11/19 05:23:24;;;;;;;7.18;2.42;;;;;;;;;;5044531;28;20052;-74
2023/11/19 05:25:54;;;;;;;4.60;2.42;;;;;;;;;;5043844;28;20479;-75
2023/11/19 05:28:25;;;;;;;6.15;2.38;;;;;;;;;;5043842;28;20053;-74
2023/11/19 05:30:56;;;;;;;8.43;3.03;;;;;;;;;;5043435;28;20052;-75
2023/11/19 05:33:28;;;;;;;9.68;2.92;;;;;;;;;;5043657;28;20049;-74
2023/11/19 05:35:59;;;;;;;8.80;2.85;;;;;;;;;;5043415;28;20049;-74
2023/11/19 05:38:36;;;;;;;13.32;2.97;;;;;;;;;;5043457;28;20045;-75
2023/11/19 05:41:07;;;;;;;10.02;2.95;;;;;;;;;;5044318;28;20056;-74
2023/11/19 05:43:40;;;;;;;8.90;2.78;;;;;;;;;;5043497;28;20053;-74
2023/11/19 05:46:13;;;;;;;6.03;2.70;;;;;;;;;;5043655;28;20526;-74
2023/11/19 05:48:46;;;;;;;5.03;2.28;;;;;;;;;;5043145;28;20732;-75
2023/11/19 05:51:17;;;;;;;5.68;2.20;;;;;;;;;;5042973;28;20045;-75
2023/11/19 05:53:47;;;;;;;9.07;2.55;;;;;;;;;;5044132;28;20052;-75
2023/11/19 05:56:21;;;;;;;8.95;2.53;;;;;;;;;;5043009;28;20056;-75
2023/11/19 05:58:51;;;;;;;13.05;2.65;;;;;;;;;;5043131;28;20415;-75
2023/11/19 06:01:21;;;;;;;5.22;2.20;;;;;;;;;;5043180;28;20045;-75
2023/11/19 06:03:53;;;;;;;10.75;2.17;;;;;;;;;;5042797;28;20056;-75
2023/11/19 06:06:23;;;;;;;7.47;1.90;;;;;;;;;;5042334;28;20049;-75
2023/11/19 06:08:54;;;;;;;8.40;2.55;;;;;;;;;;5042513;28;20438;-75
2023/11/19 06:11:26;;;;;;;8.82;2.15;;;;;;;;;;5043479;28;20052;-75
2023/11/19 06:13:57;;;;;;;12.18;2.05;;;;;;;;;;5042510;28;20519;-75
2023/11/19 06:16:28;;;;;;;11.73;2.67;;;;;;;;;;5042062;28;20420;-76
2023/11/19 06:18:59;;;;;;;9.60;1.90;;;;;;;;;;5043246;28;20057;-76
2023/11/19 06:22:00;;;;;;;10.50;1.80;;;;;;;;;;5044537;28;20049;-75
2023/11/19 06:24:31;;;;;;;11.48;2.15;;;;;;;;;;5042250;28;20044;-75
2023/11/19 06:27:01;;;;;;;7.60;1.60;;;;;;;;;;5042175;28;20053;-75
2023/11/19 06:29:32;;;;;;;10.85;1.45;;;;;;;;;;5040934;28;20053;-74
2023/11/19 06:32:01;;;;;;;9.60;1.40;;;;;;;;;;5042552;28;20045;-74
2023/11/19 06:34:43;;;;;;;14.40;1.45;;;;;;;;;;5042493;28;20049;-75
2023/11/19 06:37:15;;;;;;;14.82;1.70;;;;;;;;;;5042192;28;20049;-74
2023/11/19 06:39:46;;;;;;;8.80;1.80;;;;;;;;;;5042218;28;20514;-74
2023/11/19 06:42:17;;;;;;;7.50;1.30;;;;;;;;;;5042548;28;20052;-75
2023/11/19 06:44:49;;;;;;;10.40;1.67;;;;;;;;;;5040343;28;20063;-75
2023/11/19 06:47:19;;;;;;;12.25;1.60;;;;;;;;;;5040457;28;20140;-75
2023/11/19 06:49:49;;;;;;;10.02;1.30;;;;;;;;;;5041986;28;20037;-75
2023/11/19 06:52:20;;;;;;;13.75;1.52;;;;;;;;;;5041913;28;20037;-74
2023/11/19 06:54:51;;;;;;;9.07;1.50;;;;;;;;;;5042172;28;20049;-75
2023/11/19 06:57:37;;;;;;;10.07;1.63;;;;;;;;;;5041875;28;20057;-74
2023/11/19 07:00:08;;;;;;;9.52;1.30;;;;;;;;;;5041571;28;20045;-74
2023/11/19 07:02:39;;;;;;;7.43;1.50;;;;;;;;;;5042033;28;20053;-75
2023/11/19 07:05:09;;;;;;;10.90;1.77;;;;;;;;;;5042275;28;20507;-74
2023/11/19 07:07:40;;;;;;;17.42;1.85;;;;;;;;;;5041030;28;20503;-74
2023/11/19 07:10:11;;;;;;;18.77;1.67;;;;;;;;;;5043527;28;20049;-74
2023/11/19 07:12:42;;;;;;;15.20;1.75;;;;;;;;;;5042004;28;20037;-74
2023/11/19 07:15:23;;;;;;;18.23;2.30;;;;;;;;;;5041810;28;20045;-74
2023/11/19 07:17:54;;;;;;;20.17;2.60;;;;;;;;;;5041859;28;20048;-74
2023/11/19 07:20:29;;;;;;;19.38;1.88;;;;;;;;;;5041419;28;20061;-74
2023/11/19 07:23:00;;;;;;;14.00;2.83;;;;;;;;;;5040449;28;20422;-75
2023/11/19 07:25:30;;;;;;;22.88;2.00;;;;;;;;;;5041551;28;20045;-75
2023/11/19 07:28:04;;;;;;;22.88;2.42;;;;;;;;;;5041801;28;20415;-75
2023/11/19 07:30:37;;;;;;;17.98;2.03;;;;;;;;;;5041792;28;20526;-75
2023/11/19 07:33:09;;;;;;;18.23;2.28;;;;;;;;;;5041570;28;20424;-74
2023/11/19 07:35:42;;;;;;;25.25;2.15;;;;;;;;;;5041142;28;20411;-75
2023/11/19 07:38:12;;;;;;;16.02;1.90;;;;;;;;;;5040739;28;20431;-75
2023/11/19 07:40:43;;;;;;;16.33;1.88;;;;;;;;;;5040737;28;20060;-74
2023/11/19 07:43:26;;;;;;;22.70;1.75;;;;;;;;;;5044383;28;20056;-75
2023/11/19 07:45:56;;;;;;;26.60;3.95;;;;;;;;;;5045960;28;20053;-75
2023/11/19 07:48:27;;;;;;;15.65;2.53;;;;;;;;;;5045871;28;20399;-75
2023/11/19 07:50:58;;;;;;;13.73;1.90;;;;;;;;;;5044716;28;20527;-75
2023/11/19 07:53:29;;;;;;;14.85;1.90;;;;;;;;;;5045306;28;20060;-75
2023/11/19 07:56:01;;;;;;;15.15;2.00;;;;;;;;;;5045429;28;20056;-75
2023/11/19 07:58:33;;;;;;;11.95;1.63;;;;;;;;;;5027487;28;20146;-75
2023/11/19 08:01:04;;;;;;;12.63;1.35;;;;;;;;;;5045567;28;20059;-74
2023/11/19 08:03:34;;;;;;;12.55;2.10;;;;;;;;;;5044568;28;20508;-74
2023/11/19 08:06:06;;;;;;;21.95;2.33;;;;;;;;;;5044601;28;20073;-75
2023/11/19 08:08:41;;;;;;;10.73;1.48;;;;;;;;;;5043910;28;20049;-75
2023/11/19 08:11:12;;;;;;;15.20;1.70;;;;;;;;;;5044882;28;20053;-75
2023/11/19 08:13:43;;;;;;;10.18;1.60;;;;;;;;;;5044955;28;20056;-75
2023/11/19 08:16:14;;;;;;;18.63;2.35;;;;;;;;;;5045198;28;20404;-75
2023/11/19 08:18:45;;;;;;;25.23;1.95;;;;;;;;;;5044829;28;20423;-74
2023/11/19 08:21:17;;;;;;;14.55;1.45;;;;;;;;;;5044963;28;20056;-75
2023/11/19 08:23:47;;;;;;;12.50;1.58;;;;;;;;;;5044937;28;20045;-75
2023/11/19 08:26:17;;;;;;;15.73;1.40;;;;;;;;;;5044188;28;20049;-75
2023/11/19 08:28:52;;;;;;;11.93;1.65;;;;;;;;;;5044629;28;20434;-75
2023/11/19 08:31:22;;;;;;;18.48;1.92;;;;;;;;;;5044351;28;20049;-75
2023/11/19 08:33:52;;;;;;;13.80;1.40;;;;;;;;;;5043958;28;20056;-75
2023/11/19 08:36:23;;;;;;;8.80;1.40;;;;;;;;;;5044411;28;20057;-74
2023/11/19 08:38:54;;;;;;;9.15;1.20;;;;;;;;;;5044659;28;20534;-75
2023/11/19 08:41:25;;;;;;;16.40;1.98;;;;;;;;;;5044402;28;20052;-75
2023/11/19 08:43:56;;;;;;;11.82;1.50;;;;;;;;;;5044223;28;20045;-75
2023/11/19 08:46:29;;;;;;;15.73;1.45;;;;;;;;;;5044086;28;20060;-75
2023/11/19 08:49:02;;;;;;;16.13;1.38;;;;;;;;;;5044809;28;20504;-75
2023/11/19 08:51:33;;;;;;;11.05;1.25;;;;;;;;;;5043243;28;20037;-75
2023/11/19 08:54:04;;;;;;;9.88;1.15;;;;;;;;;;5043766;28;20036;-75
2023/11/19 08:56:35;;;;;;;13.70;1.13;;;;;;;;;;5044085;28;20045;-75
2023/11/19 08:59:06;;;;;;;8.05;1.02;;;;;;;;;;5044092;28;20487;-75
2023/11/19 09:01:36;;;;;;;13.57;1.65;;;;;;;;;;5043917;28;20055;-75
2023/11/19 09:04:07;;;;;;;15.10;1.48;;;;;;;;;;5044994;28;20052;-75
2023/11/19 09:06:37;;;;;;;12.18;1.23;;;;;;;;;;5044750;28;20048;-75
2023/11/19 09:09:07;;;;;;;9.07;1.58;;;;;;;;;;5044513;28;20405;-75
2023/11/19 09:11:39;;;;;;;9.73;1.00;;;;;;;;;;5043690;28;20049;-75
2023/11/19 09:14:09;;;;;;;8.80;1.17;;;;;;;;;;5043920;28;20053;-76
2023/11/19 09:16:40;;;;;;;12.63;1.10;;;;;;;;;;5044115;28;20048;-75
2023/11/19 09:19:10;;;;;;;17.20;1.38;;;;;;;;;;5043722;28;20052;-75
2023/11/19 09:21:40;;;;;;;14.02;1.20;;;;;;;;;;5043288;28;20754;-74
2023/11/19 09:24:11;;;;;;;13.43;1.20;;;;;;;;;;5043143;28;20041;-75
2023/11/19 09:26:45;;;;;;;15.15;1.08;;;;;;;;;;5043828;28;20056;-75
2023/11/19 09:29:14;;;;;;;12.95;1.45;;;;;;;;;;5043433;28;20052;-75
2023/11/19 09:31:45;;;;;;;18.70;1.38;;;;;;;;;;5044032;28;20045;-75
2023/11/19 09:34:16;;;;;;;10.60;0.95;;;;;;;;;;5043077;28;20052;-75
2023/11/19 09:36:47;;;;;;;7.03;1.33;;;;;;;;;;5044141;28;20424;-75
2023/11/19 09:39:17;;;;;;;8.77;0.85;;;;;;;;;;5042129;28;20076;-75
2023/11/19 09:41:48;;;;;;;13.57;1.30;;;;;;;;;;5043682;28;20071;-75
2023/11/19 09:44:19;;;;;;;8.13;0.93;;;;;;;;;;5042758;28;20064;-75
2023/11/19 09:46:50;;;;;;;8.65;0.70;;;;;;;;;;5043118;28;20496;-75
2023/11/19 09:49:26;;;;;;;8.50;0.90;;;;;;;;;;5041260;28;20569;-74
2023/11/19 09:51:59;;;;;;;4.75;1.08;;;;;;;;;;5042761;28;20992;-75
2023/11/19 09:54:29;;;;;;;8.50;2.22;;;;;;;;;;5042651;28;20393;-75
2023/11/19 09:57:05;;;;;;;10.15;0.90;;;;;;;;;;5043162;28;20049;-75
2023/11/19 09:59:37;;;;;;;4.97;0.70;;;;;;;;;;5041280;28;20515;-75
2023/11/19 10:02:08;;;;;;;14.35;1.75;;;;;;;;;;5042915;28;20053;-75
2023/11/19 10:04:44;;;;;;;9.90;0.98;;;;;;;;;;5041774;28;20748;-79
2023/11/19 10:07:15;;;;;;;12.95;1.25;;;;;;;;;;5042457;28;20045;-75
2023/11/19 10:09:46;;;;;;;8.98;1.50;;;;;;;;;;5042645;28;20075;-75
2023/11/19 10:12:17;;;;;;;7.55;1.00;;;;;;;;;;5042891;28;20408;-75
2023/11/19 10:14:51;;;;;;;10.75;1.33;;;;;;;;;;5042750;28;20056;-74
2023/11/19 10:17:22;;;;;;;8.70;1.10;;;;;;;;;;5042669;28;20045;-75
2023/11/19 10:19:52;;;;;;;13.40;1.17;;;;;;;;;;5042584;28;20053;-74
2023/11/19 10:22:24;;;;;;;6.13;1.00;;;;;;;;;;5042366;28;20055;-75
2023/11/19 10:24:56;;;;;;;7.65;1.70;;;;;;;;;;5042142;28;20061;-74
2023/11/19 10:27:26;;;;;;;11.30;1.20;;;;;;;;;;5043103;28;20049;-75
2023/11/19 10:30:00;;;;;;;8.05;0.90;;;;;;;;;;5025372;28;20059;-75
2023/11/19 10:32:31;;;;;;;9.00;1.10;;;;;;;;;;5042506;28;20052;-75
2023/11/19 10:35:06;;;;;;;7.05;1.00;;;;;;;;;;5024883;28;20049;-75
2023/11/19 10:37:37;;;;;;;10.05;1.10;;;;;;;;;;5042371;28;20063;-75
2023/11/19 10:40:10;;;;;;;6.63;0.90;;;;;;;;;;5041259;28;20048;-75
2023/11/19 10:42:42;;;;;;;6.05;0.95;;;;;;;;;;5042228;28;20392;-75
2023/11/19 10:45:24;;;;;;;9.98;1.08;;;;;;;;;;5042557;28;20052;-75
2023/11/19 10:47:56;;;;;;;9.95;1.77;;;;;;;;;;5042167;28;20530;-75
2023/11/19 10:50:28;;;;;;;9.52;1.35;;;;;;;;;;5042420;28;20049;-75
2023/11/19 10:52:59;;;;;;;8.07;0.93;;;;;;;;;;5042226;28;20052;-75
2023/11/19 10:55:32;;;;;;;11.07;1.17;;;;;;;;;;5042254;28;20052;-78
2023/11/19 10:58:12;;;;;;;10.43;1.23;;;;;;;;;;5042193;28;20056;-75
2023/11/19 11:00:48;;;;;;;11.88;1.23;;;;;;;;;;5042106;28;20060;-75
2023/11/19 11:03:27;;;;;;;5.25;0.70;;;;;;;;;;5040701;28;20056;-75
2023/11/19 11:06:03;;;;;;;5.40;1.13;;;;;;;;;;5041909;28;20408;-75
2023/11/19 11:08:38;;;;;;;7.05;0.93;;;;;;;;;;5041940;28;20044;-76
2023/11/19 11:11:23;;;;;;;;;;;;;;;;;;5042620;28;20049;-75
2023/11/19 11:13:57;;;;;;;5.32;0.93;;;;;;;;;;5042284;28;19925;-76
2023/11/19 11:16:31;;;;;;;10.57;1.15;;;;;;;;;;5041893;28;20045;-75
2023/11/19 11:19:02;;;;;;;10.23;1.00;;;;;;;;;;5044319;28;20082;-76
2023/11/19 11:21:33;;;;;;;7.57;0.80;;;;;;;;;;5046057;28;20053;-75
2023/11/19 11:24:21;;;;;;;11.55;1.17;;;;;;;;;;5045837;28;20427;-75
2023/11/19 11:27:29;;;;;;;5.80;1.10;;;;;;;;;;5045697;28;20053;-75
2023/11/19 11:30:19;;;;;;;7.28;1.13;;;;;;;;;;5046172;28;20055;-75
2023/11/19 11:33:05;;;;;;;8.48;1.02;;;;;;;;;;5045920;28;20435;-76
2023/11/19 11:35:45;;;;;;;6.25;0.80;;;;;;;;;;5045731;28;20055;-75
2023/11/19 11:38:17;;;;;;;10.35;0.93;;;;;;;;;;5045652;28;20052;-78
2023/11/19 11:41:20;;;;;;;4.32;0.77;;;;;;;;;;5045066;28;20057;-75
2023/11/19 11:44:12;;;;;;;11.50;0.93;;;;;;;;;;5046046;28;20124;-75
2023/11/19 11:46:42;;;;;;;7.68;0.80;;;;;;;;;;5045512;28;20814;-75
2023/11/19 11:49:13;;;;;;;8.15;0.93;;;;;;;;;;5045303;28;20041;-80
2023/11/19 11:51:45;;;;;;;7.28;0.90;;;;;;;;;;5045454;28;20041;-77
2023/11/19 11:54:21;;;;;;;7.63;0.90;;;;;;;;;;5044948;28;20056;-77
2023/11/19 11:57:04;;;;;;;4.60;0.68;;;;;;;;;;5044939;28;20037;-75
2023/11/19 11:59:42;;;;;;;6.85;0.73;;;;;;;;;;5045219;28;20511;-76
2023/11/19 12:02:16;;;;;;;5.82;0.85;;;;;;;;;;5045346;28;20052;-75
2023/11/19 12:04:50;;;;;;;3.92;0.90;;;;;;;;;;5046624;28;20041;-75
2023/11/19 12:07:25;;;;;;;5.30;0.90;;;;;;;;;;5046613;28;20500;-75
2023/11/19 12:10:13;;;;;;;6.00;1.00;;;;;;;;;;5045119;28;20416;-77
2023/11/19 12:12:43;;;;;;;10.05;1.15;;;;;;;;;;5044850;28;20056;-78
2023/11/19 12:15:14;;;;;;;7.55;1.48;;;;;;;;;;5044404;28;20057;-75
2023/11/19 12:17:50;;;;;;;3.60;0.63;;;;;;;;;;5044731;28;20048;-78
2023/11/19 12:20:24;;;;;;;;;;;;;;;;;;5045096;28;20048;-75
2023/11/19 12:22:58;;;;;;;1.67;0.43;;;;;;;;;;5044588;28;19931;-75
2023/11/19 12:25:34;;;;;;;7.43;1.08;;;;;;;;;;5044814;28;20419;-75
2023/11/19 12:28:04;;;;;;;4.43;0.60;;;;;;;;;;5044998;28;20045;-79
2023/11/19 12:30:35;;;;;;;3.78;0.60;;;;;;;;;;5043446;28;20045;-75
2023/11/19 12:33:11;;;;;;;7.32;1.13;;;;;;;;;;5044684;28;20404;-76
2023/11/19 12:35:43;;;;;;;2.83;0.50;;;;;;;;;;5045608;28;20045;-76
2023/11/19 12:38:26;;;;;;;8.30;1.05;;;;;;;;;;5045276;28;20053;-75
2023/11/19 12:41:20;;;;;;;7.57;1.38;;;;;;;;;;5044804;28;20435;-75
2023/11/19 12:43:52;;;;;;;7.22;1.00;;;;;;;;;;5043502;28;20056;-75
2023/11/19 12:46:23;;;;;;;5.28;0.70;;;;;;;;;;5043848;28;20060;-76
2023/11/19 12:48:54;;;;;;;8.70;0.90;;;;;;;;;;5043940;28;20830;-75
2023/11/19 12:51:32;;;;;;;7.57;1.02;;;;;;;;;;5044520;28;20506;-75
2023/11/19 12:54:04;;;;;;;8.80;1.88;;;;;;;;;;5044214;28;20408;-75
2023/11/19 12:56:36;;;;;;;4.43;1.05;;;;;;;;;;5043554;28;20056;-75
2023/11/19 12:59:13;;;;;;;5.82;0.80;;;;;;;;;;5043700;28;20052;-75
2023/11/19 13:02:05;;;;;;;7.90;0.88;;;;;;;;;;5043681;28;20049;-75
2023/11/19 13:04:36;;;;;;;3.22;0.95;;;;;;;;;;5044210;28;20442;-77
2023/11/19 13:07:06;;;;;;;9.30;1.08;;;;;;;;;;5043916;28;20067;-75
2023/11/19 13:09:37;;;;;;;5.68;1.20;;;;;;;;;;5044041;28;20067;-76
2023/11/19 13:12:16;;;;;;;11.90;1.08;;;;;;;;;;5044570;28;20045;-75
2023/11/19 13:14:49;;;;;;;4.38;1.48;;;;;;;;;;5042814;28;20059;-77
2023/11/19 13:17:20;;;;;;;5.43;1.30;;;;;;;;;;5042851;28;20389;-75
2023/11/19 13:19:52;;;;;;;6.30;1.20;;;;;;;;;;5044370;28;20049;-76
2023/11/19 13:22:22;;;;;;;5.75;1.05;;;;;;;;;;5044048;28;20060;-76
2023/11/19 13:24:54;;;;;;;4.47;1.45;;;;;;;;;;5043811;28;20052;-76
2023/11/19 13:27:25;;;;;;;4.55;1.08;;;;;;;;;;5044019;28;20048;-79
2023/11/19 13:29:56;;;;;;;8.82;1.40;;;;;;;;;;5041947;28;20052;-75
2023/11/19 13:32:26;;;;;;;8.02;1.10;;;;;;;;;;5043609;28;20057;-76
2023/11/19 13:35:02;;;;;;;7.15;1.75;;;;;;;;;;5043746;28;20049;-76
2023/11/19 13:37:33;;;;;;;8.95;1.00;;;;;;;;;;5043431;28;20660;-76
2023/11/19 13:40:07;;;;;;;4.43;1.10;;;;;;;;;;5042401;28;20045;-76
2023/11/19 13:42:40;;;;;;;8.63;1.25;;;;;;;;;;5041553;28;20048;-76
2023/11/19 13:45:18;;;;;;;6.47;1.15;;;;;;;;;;5043809;28;20099;-76
2023/11/19 13:47:48;;;;;;;3.08;0.80;;;;;;;;;;5042944;28;20072;-75
2023/11/19 13:50:18;;;;;;;6.97;1.00;;;;;;;;;;5042653;28;20519;-76
2023/11/19 13:52:49;;;;;;;8.98;1.00;;;;;;;;;;5043054;28;20053;-76
2023/11/19 13:55:20;;;;;;;6.45;1.10;;;;;;;;;;5042838;28;20052;-77
2023/11/19 13:57:50;;;;;;;11.07;1.38;;;;;;;;;;5042811;28;20048;-76
2023/11/19 14:00:23;;;;;;;7.72;1.92;;;;;;;;;;5043654;28;20546;-75
2023/11/19 14:02:54;;;;;;;9.50;1.30;;;;;;;;;;5041926;28;20056;-75
2023/11/19 14:05:26;;;;;;;5.63;1.10;;;;;;;;;;5042486;28;20053;-76
2023/11/19 14:08:01;;;;;;;7.43;1.08;;;;;;;;;;5042359;28;20059;-76
2023/11/19 14:10:38;;;;;;;6.70;1.52;;;;;;;;;;5041374;28;20060;-75
2023/11/19 14:13:08;;;;;;;6.25;1.23;;;;;;;;;;5043217;28;20462;-79
2023/11/19 14:15:39;;;;;;;7.65;1.30;;;;;;;;;;5042377;28;20049;-75
2023/11/19 14:18:10;;;;;;;5.72;1.30;;;;;;;;;;5043181;28;20045;-76
2023/11/19 14:20:41;;;;;;;3.92;1.02;;;;;;;;;;5042464;28;20053;-75
2023/11/19 14:23:11;;;;;;;4.88;1.13;;;;;;;;;;5042398;28;20045;-76
2023/11/19 14:25:41;;;;;;;7.78;1.35;;;;;;;;;;5041245;28;20049;-78
2023/11/19 14:28:12;;;;;;;12.02;7.00;;;;;;;;;;5042340;28;20495;-76
2023/11/19 14:30:44;;;;;;;8.50;1.20;;;;;;;;;;5043188;28;20452;-76
2023/11/19 14:33:16;;;;;;;9.77;1.98;;;;;;;;;;5043595;28;20048;-75
2023/11/19 14:35:46;;;;;;;5.90;1.30;;;;;;;;;;5042094;28;20044;-81
2023/11/19 14:38:17;;;;;;;5.68;1.08;;;;;;;;;;5041896;28;20061;-75
2023/11/19 14:40:47;;;;;;;8.43;1.40;;;;;;;;;;5041725;28;20052;-75
2023/11/19 14:43:17;;;;;;;8.68;1.15;;;;;;;;;;5042294;28;20492;-75
2023/11/19 14:45:48;;;;;;;7.47;1.25;;;;;;;;;;5040642;28;20045;-76
2023/11/19 14:48:23;;;;;;;8.38;1.20;;;;;;;;;;5042177;28;20751;-75
2023/11/19 14:50:57;;;;;;;7.15;1.70;;;;;;;;;;5041805;28;20047;-76
2023/11/19 14:53:26;;;;;;;4.32;1.10;;;;;;;;;;5041035;28;20048;-75
2023/11/19 14:55:57;;;;;;;3.88;1.20;;;;;;;;;;5042307;28;20088;-75
2023/11/19 14:58:27;;;;;;;5.30;0.80;;;;;;;;;;5041815;28;20063;-75
2023/11/19 15:00:58;;;;;;;7.82;1.42;;;;;;;;;;5042046;28;20051;-82
2023/11/19 15:03:28;;;;;;;5.78;1.10;;;;;;;;;;5042487;28;20495;-76
2023/11/19 15:05:59;;;;;;;10.23;1.80;;;;;;;;;;5042452;28;20056;-75
2023/11/19 15:08:30;;;;;;;5.97;0.90;;;;;;;;;;5042069;28;20051;-75
2023/11/19 15:11:01;;;;;;;9.25;1.40;;;;;;;;;;5042282;28;20052;-75